createdAt,value
2022-09-06T00:01:58.700Z,100.00
2022-09-06T00:05:05.815Z,100.00
2022-09-06T00:08:14.871Z,100.00
2022-09-06T00:11:21.323Z,100.00
2022-09-06T00:14:27.555Z,100.00
2022-09-06T00:17:34.799Z,100.00
2022-09-06T00:24:07.679Z,100.00
2022-09-06T00:27:13.796Z,100.00
2022-09-06T00:30:19.984Z,100.00
2022-09-06T00:33:26.472Z,100.00
2022-09-06T00:36:32.972Z,100.00
2022-09-06T00:39:40.434Z,100.00
2022-09-06T00:42:46.747Z,100.00
2022-09-06T00:45:53.929Z,100.00
2022-09-06T00:49:12.317Z,100.00
2022-09-06T00:52:20.533Z,100.00
2022-09-06T00:55:28.768Z,100.00
2022-09-06T00:58:36.452Z,100.00
2022-09-06T01:01:42.790Z,100.00
2022-09-06T01:04:51.352Z,100.00
2022-09-06T01:08:09.947Z,100.00
2022-09-06T01:11:32.440Z,100.00
2022-09-06T01:14:53.115Z,100.00
2022-09-06T01:18:09.914Z,100.00
2022-09-06T01:21:24.204Z,100.00
2022-09-06T01:25:01.047Z,100.00
2022-09-06T01:28:29.267Z,100.00
2022-09-06T01:31:42.817Z,100.00
2022-09-06T01:34:55.478Z,100.00
2022-09-06T01:38:02.722Z,100.00
2022-09-06T01:41:09.186Z,100.00
2022-09-06T01:44:17.123Z,100.00
2022-09-06T01:47:41.009Z,100.00
2022-09-06T01:51:09.234Z,100.00
2022-09-06T01:54:27.662Z,100.00
2022-09-06T01:57:49.579Z,100.00
2022-09-06T02:01:13.536Z,100.00
2022-09-06T02:04:24.306Z,100.00
2022-09-06T02:07:33.744Z,100.00
2022-09-06T02:10:46.572Z,100.00
2022-09-06T02:13:56.850Z,100.00
2022-09-06T02:17:05.939Z,100.00
2022-09-06T02:20:17.647Z,100.00
2022-09-06T02:23:28.894Z,100.00
2022-09-06T02:26:41.195Z,100.00
2022-09-06T02:29:47.537Z,100.00
2022-09-06T02:33:04.015Z,100.00
2022-09-06T02:36:11.159Z,100.00
2022-09-06T02:39:17.956Z,100.00
2022-09-06T02:42:25.474Z,100.00
2022-09-06T02:45:31.907Z,100.00
2022-09-06T02:48:39.564Z,100.00
2022-09-06T02:51:46.104Z,100.00
2022-09-06T02:54:52.475Z,100.00
2022-09-06T02:57:58.959Z,100.00
2022-09-06T03:01:05.740Z,100.00
2022-09-06T03:04:13.472Z,100.00
2022-09-06T03:07:19.870Z,100.00
2022-09-06T03:10:26.422Z,100.00
2022-09-06T03:13:32.615Z,100.00
2022-09-06T03:16:39.362Z,100.00
2022-09-06T03:19:47.651Z,100.00
2022-09-06T03:22:53.923Z,100.00
2022-09-06T03:26:00.108Z,100.00
2022-09-06T03:29:06.170Z,100.00
2022-09-06T03:32:12.622Z,100.00
2022-09-06T03:35:20.444Z,100.00
2022-09-06T03:38:28.575Z,100.00
2022-09-06T03:41:34.867Z,100.00
2022-09-06T03:44:41.165Z,100.00
2022-09-06T03:47:47.371Z,100.00
2022-09-06T03:50:56.930Z,100.00
2022-09-06T03:54:03.376Z,100.00
2022-09-06T03:57:09.808Z,100.00
2022-09-06T04:00:17.434Z,100.00
2022-09-06T04:03:24.019Z,100.00
2022-09-06T04:06:31.670Z,100.00
2022-09-06T04:09:38.002Z,100.00
2022-09-06T04:12:45.090Z,100.00
2022-09-06T04:15:52.611Z,100.00
2022-09-06T04:19:00.899Z,100.00
2022-09-06T04:22:08.907Z,100.00
2022-09-06T04:25:15.511Z,100.00
2022-09-06T04:28:22.477Z,100.00
2022-09-06T04:31:28.582Z,100.00
2022-09-06T04:34:35.054Z,100.00
2022-09-06T04:37:42.481Z,100.00
2022-09-06T04:40:48.603Z,100.00
2022-09-06T04:43:54.510Z,100.00
2022-09-06T04:47:10.011Z,100.00
2022-09-06T04:50:16.350Z,100.00
2022-09-06T04:53:23.962Z,100.00
2022-09-06T04:56:30.292Z,100.00
2022-09-06T04:59:37.023Z,100.00
2022-09-06T05:02:45.255Z,100.00
2022-09-06T05:05:51.894Z,100.00
2022-09-06T05:08:59.656Z,100.00
2022-09-06T05:12:06.652Z,100.00
2022-09-06T05:15:13.284Z,100.00
2022-09-06T05:18:19.459Z,100.00
2022-09-06T05:21:25.490Z,100.00
2022-09-06T05:24:33.094Z,100.00
2022-09-06T05:27:39.111Z,100.00
2022-09-06T05:30:45.762Z,100.00
2022-09-06T05:33:53.217Z,100.00
2022-09-06T05:36:58.983Z,100.00
2022-09-06T05:40:07.474Z,100.00
2022-09-06T05:43:13.620Z,100.00
2022-09-06T05:46:19.940Z,100.00
2022-09-06T05:49:26.036Z,100.00
2022-09-06T05:52:33.173Z,100.00
2022-09-06T05:55:43.052Z,100.00
2022-09-06T05:58:49.854Z,100.00
2022-09-06T06:01:56.474Z,100.00
2022-09-06T06:05:02.817Z,100.00
2022-09-06T06:08:09.086Z,100.00
2022-09-06T06:11:16.862Z,100.00
2022-09-06T06:14:23.298Z,100.00
2022-09-06T06:17:29.478Z,100.00
2022-09-06T06:20:35.850Z,100.00
2022-09-06T06:23:42.975Z,100.00
2022-09-06T06:26:50.566Z,100.00
2022-09-06T06:29:56.546Z,100.00
2022-09-06T06:33:02.693Z,100.00
2022-09-06T06:36:21.928Z,100.00
2022-09-06T06:39:28.055Z,100.00
2022-09-06T06:42:35.688Z,100.00
2022-09-06T06:45:42.107Z,100.00
2022-09-06T06:48:52.693Z,100.00
2022-09-06T06:52:00.942Z,100.00
2022-09-06T06:55:07.367Z,100.00
2022-09-06T06:58:14.679Z,100.00
2022-09-06T07:01:22.851Z,100.00
2022-09-06T07:04:29.115Z,100.00
2022-09-06T07:07:36.754Z,100.00
2022-09-06T07:10:45.759Z,98.28
2022-09-06T07:13:53.564Z,96.63
2022-09-06T07:16:59.753Z,94.51
2022-09-06T07:26:41.922Z,98.65
2022-09-06T07:29:49.573Z,97.65
2022-09-06T07:32:55.955Z,96.39
2022-09-06T07:36:03.869Z,91.53
2022-09-06T07:39:09.834Z,86.78
2022-09-06T07:42:16.371Z,88.93
2022-09-06T07:45:23.695Z,91.56
2022-09-06T07:48:31.396Z,92.01
2022-09-06T07:51:37.355Z,89.62
2022-09-06T07:54:43.528Z,89.43
2022-09-06T07:57:49.866Z,92.09
2022-09-06T08:01:15.675Z,90.64
2022-09-06T08:04:22.026Z,91.02
2022-09-06T08:07:43.322Z,90.68
2022-09-06T08:10:52.061Z,84.18
2022-09-06T08:14:00.145Z,82.42
2022-09-06T08:17:07.846Z,82.95
2022-09-06T08:20:14.181Z,81.77
2022-09-06T08:23:20.343Z,78.66
2022-09-06T08:26:27.840Z,78.43
2022-09-06T08:29:34.159Z,77.28
2022-09-06T08:32:42.994Z,77.96
2022-09-06T08:35:57.406Z,78.67
2022-09-06T08:39:06.135Z,79.61
2022-09-06T08:42:13.514Z,78.72
2022-09-06T08:45:21.904Z,78.17
2022-09-06T08:48:33.469Z,73.33
2022-09-06T08:52:02.056Z,73.84
2022-09-06T08:55:26.342Z,74.60
2022-09-06T08:59:00.757Z,73.26
2022-09-06T09:02:16.599Z,71.80
2022-09-06T09:05:30.075Z,67.08
2022-09-06T09:08:46.402Z,64.43
2022-09-06T09:11:52.946Z,66.64
2022-09-06T09:15:06.842Z,62.58
2022-09-06T09:18:13.347Z,63.16
2022-09-06T09:21:30.390Z,61.12
2022-09-06T09:24:38.302Z,60.87
2022-09-06T09:27:46.147Z,64.08
2022-09-06T09:30:54.102Z,61.84
2022-09-06T09:34:04.699Z,61.34
2022-09-06T09:40:53.015Z,60.29
2022-09-06T09:44:04.634Z,59.67
2022-09-06T09:47:28.065Z,57.86
2022-09-06T09:50:36.059Z,57.13
2022-09-06T09:53:51.871Z,54.93
2022-09-06T09:56:58.550Z,54.18
2022-09-06T10:00:13.196Z,50.31
2022-09-06T10:03:31.254Z,49.79
2022-09-06T10:10:08.976Z,44.87
2022-09-06T10:13:21.630Z,47.41
2022-09-06T10:16:44.789Z,44.66
2022-09-06T10:19:51.041Z,46.65
2022-09-06T10:23:03.251Z,46.86
2022-09-06T10:26:16.649Z,43.23
2022-09-06T10:29:36.609Z,42.36
2022-09-06T10:32:43.754Z,42.01
2022-09-06T10:35:50.078Z,42.23
2022-09-06T10:39:03.737Z,41.14
2022-09-06T10:42:21.145Z,42.34
2022-09-06T10:45:44.553Z,41.88
2022-09-06T10:48:50.573Z,42.62
2022-09-06T10:52:01.740Z,42.68
2022-09-06T10:55:12.190Z,42.06
2022-09-06T11:02:14.196Z,43.07
2022-09-06T11:05:41.597Z,42.30
2022-09-06T11:08:57.860Z,38.22
2022-09-06T11:12:12.058Z,39.20
2022-09-06T11:15:22.068Z,38.64
2022-09-06T11:18:33.865Z,39.20
2022-09-06T11:22:09.180Z,39.47
2022-09-06T11:25:46.817Z,38.88
2022-09-06T11:28:56.290Z,39.24
2022-09-06T11:32:25.972Z,37.21
2022-09-06T11:35:34.997Z,38.64
2022-09-06T11:38:42.985Z,39.18
2022-09-06T11:41:49.057Z,36.82
2022-09-06T11:45:21.434Z,34.55
2022-09-06T11:49:02.051Z,35.01
2022-09-06T11:53:00.613Z,34.41
2022-09-06T11:56:26.243Z,36.45
2022-09-06T11:59:40.453Z,36.53
2022-09-06T12:02:46.972Z,38.64
2022-09-06T12:06:17.777Z,38.64
2022-09-06T12:09:34.794Z,35.84
2022-09-06T12:12:43.095Z,33.91
2022-09-06T12:15:55.616Z,36.13
2022-09-06T12:19:03.119Z,39.54
2022-09-06T12:22:42.652Z,40.98
2022-09-06T12:26:00.208Z,42.80
2022-09-06T12:29:11.837Z,41.78
2022-09-06T12:32:23.628Z,41.72
2022-09-06T12:39:00.451Z,44.82
2022-09-06T12:42:13.921Z,45.33
2022-09-06T12:45:25.215Z,46.91
2022-09-06T12:48:36.166Z,46.99
2022-09-06T12:51:42.949Z,47.54
2022-09-06T12:54:51.085Z,49.42
2022-09-06T12:58:00.817Z,48.80
2022-09-06T13:01:14.840Z,47.87
2022-09-06T13:04:28.378Z,48.55
2022-09-06T13:07:36.514Z,49.40
2022-09-06T13:10:45.893Z,46.18
2022-09-06T13:13:55.460Z,48.54
2022-09-06T13:17:01.730Z,48.59
2022-09-06T13:20:13.226Z,48.97
2022-09-06T13:23:22.499Z,50.95
2022-09-06T13:26:37.170Z,49.60
2022-09-06T13:29:56.998Z,50.42
2022-09-06T13:33:04.004Z,50.70
2022-09-06T13:36:22.734Z,51.74
2022-09-06T13:39:34.143Z,51.05
2022-09-06T13:42:40.272Z,50.63
2022-09-06T13:45:47.854Z,52.35
2022-09-06T13:48:55.217Z,50.33
2022-09-06T13:52:03.494Z,49.44
2022-09-06T13:55:10.339Z,50.19
2022-09-06T13:58:16.126Z,51.15
2022-09-06T14:01:23.568Z,50.08
2022-09-06T14:04:30.070Z,48.78
2022-09-06T14:07:36.562Z,51.59
2022-09-06T14:10:43.065Z,51.75
2022-09-06T14:13:49.917Z,49.58
2022-09-06T14:16:57.682Z,50.16
2022-09-06T14:20:05.063Z,51.81
2022-09-06T14:23:11.468Z,50.07
2022-09-06T14:26:18.961Z,51.04
2022-09-06T14:29:25.245Z,52.24
2022-09-06T14:32:33.054Z,53.62
2022-09-06T14:35:40.918Z,54.68
2022-09-06T14:38:48.220Z,56.93
2022-09-06T14:41:54.435Z,55.96
2022-09-06T14:45:01.007Z,57.54
2022-09-06T14:48:08.566Z,59.90
2022-09-06T14:51:19.262Z,56.81
2022-09-06T14:54:29.114Z,57.31
2022-09-06T14:57:36.007Z,58.24
2022-09-06T15:00:44.795Z,59.91
2022-09-06T15:03:54.818Z,61.83
2022-09-06T15:07:01.090Z,62.44
2022-09-06T15:10:08.052Z,64.28
2022-09-06T15:13:14.803Z,65.11
2022-09-06T15:16:21.527Z,66.50
2022-09-06T15:19:31.107Z,67.64
2022-09-06T15:22:37.603Z,70.87
2022-09-06T15:25:48.303Z,71.98
2022-09-06T15:28:54.574Z,76.96
2022-09-06T15:32:01.222Z,76.25
2022-09-06T15:35:10.041Z,80.53
2022-09-06T15:38:16.394Z,82.50
2022-09-06T15:41:25.511Z,76.44
2022-09-06T15:44:31.583Z,76.09
2022-09-06T15:47:37.755Z,71.99
2022-09-06T15:50:51.529Z,71.80
2022-09-06T15:54:00.414Z,75.92
2022-09-06T15:57:07.182Z,77.67
2022-09-06T16:00:14.965Z,82.90
2022-09-06T16:03:21.271Z,79.65
2022-09-06T16:06:29.037Z,82.47
2022-09-06T16:09:35.338Z,81.79
2022-09-06T16:12:41.734Z,79.42
2022-09-06T16:15:57.574Z,79.95
2022-09-06T16:19:04.695Z,80.20
2022-09-06T16:22:13.061Z,83.48
2022-09-06T16:25:19.696Z,86.15
2022-09-06T16:28:30.607Z,90.02
2022-09-06T16:31:40.280Z,93.95
2022-09-06T16:34:47.127Z,82.92
2022-09-06T16:37:54.790Z,87.44
2022-09-06T16:41:02.331Z,92.64
2022-09-06T16:44:09.262Z,91.89
2022-09-06T16:47:16.777Z,89.24
2022-09-06T16:50:23.148Z,90.75
2022-09-06T16:53:30.603Z,92.65
2022-09-06T16:56:36.974Z,95.13
2022-09-06T16:59:43.413Z,93.05
2022-09-06T17:02:49.562Z,93.74
2022-09-06T17:05:55.863Z,92.75
2022-09-06T17:09:03.633Z,93.27
2022-09-06T17:12:09.850Z,94.73
2022-09-06T17:15:16.566Z,94.67
2022-09-06T17:18:22.391Z,100.00
2022-09-06T17:21:30.130Z,100.00
2022-09-06T17:24:38.589Z,98.75
2022-09-06T17:27:44.741Z,100.00
2022-09-06T17:30:51.348Z,100.00
2022-09-06T17:33:59.809Z,100.00
2022-09-06T17:37:06.336Z,99.78
2022-09-06T17:40:14.255Z,100.00
2022-09-06T17:43:21.363Z,97.15
2022-09-06T17:46:29.199Z,100.00
2022-09-06T17:49:35.833Z,100.00
2022-09-06T17:52:41.892Z,100.00
2022-09-06T17:55:52.121Z,97.62
2022-09-06T17:59:01.095Z,97.71
2022-09-06T18:02:07.587Z,98.14
2022-09-06T18:05:13.903Z,99.87
2022-09-06T18:08:21.603Z,100.00
2022-09-06T18:11:32.040Z,100.00
2022-09-06T18:14:39.016Z,100.00
2022-09-06T18:17:45.307Z,100.00
2022-09-06T18:20:51.975Z,100.00
2022-09-06T18:23:58.771Z,100.00
2022-09-06T18:27:06.926Z,100.00
2022-09-06T18:30:14.975Z,100.00
2022-09-06T18:33:24.138Z,100.00
2022-09-06T18:36:32.387Z,100.00
2022-09-06T18:39:39.723Z,100.00
2022-09-06T18:42:47.856Z,100.00
2022-09-06T18:45:54.587Z,100.00
2022-09-06T18:49:01.609Z,100.00
2022-09-06T18:52:08.518Z,100.00
2022-09-06T18:55:14.895Z,100.00
2022-09-06T18:58:23.148Z,100.00
2022-09-06T19:01:31.622Z,100.00
2022-09-06T19:04:40.937Z,100.00
2022-09-06T19:07:47.498Z,100.00
2022-09-06T19:11:03.591Z,100.00
2022-09-06T19:14:11.616Z,100.00
2022-09-06T19:17:18.372Z,100.00
2022-09-06T19:20:24.975Z,100.00
2022-09-06T19:23:33.398Z,100.00
2022-09-06T19:26:42.156Z,100.00
2022-09-06T19:29:49.943Z,100.00
2022-09-06T19:32:56.606Z,100.00
2022-09-06T19:36:11.688Z,100.00
2022-09-06T19:39:19.208Z,100.00
2022-09-06T19:42:25.574Z,100.00
2022-09-06T19:45:38.179Z,100.00
2022-09-06T19:48:46.821Z,100.00
2022-09-06T19:51:53.257Z,100.00
2022-09-06T19:54:59.792Z,100.00
2022-09-06T19:58:09.070Z,100.00
2022-09-06T20:01:18.159Z,100.00
2022-09-06T20:04:25.116Z,100.00
2022-09-06T20:07:31.244Z,100.00
2022-09-06T20:10:37.498Z,100.00
2022-09-06T20:13:44.041Z,100.00
2022-09-06T20:16:52.441Z,100.00
2022-09-06T20:19:58.594Z,100.00
2022-09-06T20:23:05.021Z,100.00
2022-09-06T20:26:13.546Z,100.00
2022-09-06T20:29:20.283Z,100.00
2022-09-06T20:32:28.271Z,100.00
2022-09-06T20:35:34.708Z,100.00
2022-09-06T20:38:42.341Z,100.00
2022-09-06T20:41:48.436Z,100.00
2022-09-06T20:44:54.769Z,100.00
2022-09-06T20:48:02.990Z,100.00
2022-09-06T20:51:11.406Z,100.00
2022-09-06T20:54:18.095Z,100.00
2022-09-06T20:57:24.722Z,100.00
2022-09-06T21:00:31.131Z,100.00
2022-09-06T21:03:40.883Z,100.00
2022-09-06T21:06:47.323Z,100.00
2022-09-06T21:09:53.528Z,100.00
2022-09-06T21:12:59.710Z,100.00
2022-09-06T21:16:06.875Z,100.00
2022-09-06T21:19:14.855Z,100.00
2022-09-06T21:22:21.367Z,100.00
2022-09-06T21:25:28.090Z,100.00
2022-09-06T21:28:36.796Z,100.00
2022-09-06T21:31:43.143Z,100.00
2022-09-06T21:34:50.829Z,100.00
2022-09-06T21:37:57.120Z,100.00
2022-09-06T21:41:03.476Z,100.00
2022-09-06T21:44:10.580Z,100.00
2022-09-06T21:47:16.635Z,100.00
2022-09-06T21:50:24.011Z,100.00
2022-09-06T21:53:30.088Z,100.00
2022-09-06T21:56:38.390Z,100.00
2022-09-06T21:59:44.847Z,100.00
2022-09-06T22:02:51.611Z,100.00
2022-09-06T22:05:59.894Z,100.00
2022-09-06T22:09:11.167Z,100.00
2022-09-06T22:12:17.553Z,100.00
2022-09-06T22:15:23.859Z,100.00
2022-09-06T22:18:30.174Z,100.00
2022-09-06T22:21:38.900Z,100.00
2022-09-06T22:24:45.000Z,100.00
2022-09-06T22:27:51.063Z,100.00
2022-09-06T22:30:57.558Z,100.00
2022-09-06T22:34:04.220Z,100.00
2022-09-06T22:37:12.711Z,100.00
2022-09-06T22:40:19.166Z,100.00
2022-09-06T22:43:26.127Z,100.00
2022-09-06T22:46:33.063Z,100.00
2022-09-06T22:49:39.583Z,100.00
2022-09-06T22:52:47.518Z,100.00
2022-09-06T22:55:53.903Z,100.00
2022-09-06T22:59:00.468Z,100.00
2022-09-06T23:02:07.312Z,100.00
2022-09-06T23:05:13.817Z,100.00
2022-09-06T23:08:21.776Z,100.00
2022-09-06T23:11:28.894Z,100.00
2022-09-06T23:14:35.102Z,100.00
2022-09-06T23:17:41.344Z,100.00
2022-09-06T23:20:47.558Z,100.00
2022-09-06T23:23:57.366Z,100.00
2022-09-06T23:27:04.899Z,100.00
2022-09-06T23:30:12.375Z,100.00
2022-09-06T23:33:18.678Z,100.00
2022-09-06T23:36:25.565Z,100.00
2022-09-06T23:39:33.302Z,100.00
2022-09-06T23:42:39.380Z,100.00
2022-09-06T23:45:45.608Z,100.00
2022-09-06T23:48:51.716Z,100.00
2022-09-06T23:51:57.807Z,100.00
2022-09-06T23:55:06.376Z,100.00
2022-09-06T23:58:12.961Z,100.00
